Time;durP1;ratioP1;P1;durP2;ratioP2;P2;SDS_P1;SDS_P2;PMS_P1;PMS_P2;Temp;Humidity;BMP_temperature;BMP_pressure;BME280_temperature;BME280_humidity;BME280_pressure;Samples;Min_cycle;Max_cycle;Signal;HPM_P1;HPM_P2
2023/01/30 00:01:41;;;;;;;31.33;16.67;;;;;;;-5.08;63.24;95734.09;5068494;28;20078;-69
2023/01/30 00:04:07;;;;;;;31.95;16.35;;;;;;;-4.60;60.82;95735.13;5065576;28;20218;-69
2023/01/30 00:06:32;;;;;;;19.92;10.38;;;;;;;-4.80;61.79;95737.00;5065482;28;20066;-70
2023/01/30 00:08:57;;;;;;;33.63;18.98;;;;;;;-4.71;61.40;95733.97;5062201;28;20095;-70
2023/01/30 00:11:23;;;;;;;34.35;16.33;;;;;;;-4.84;62.10;95712.97;5066911;28;20505;-70
2023/01/30 00:13:49;;;;;;;29.77;16.23;;;;;;;-4.93;62.37;95710.81;5065471;28;20077;-69
2023/01/30 00:16:14;;;;;;;23.20;12.00;;;;;;;-4.99;62.86;95704.19;5067987;28;20251;-72
2023/01/30 00:18:40;;;;;;;37.25;16.88;;;;;;;-4.79;61.99;95702.31;5063075;28;20702;-71
2023/01/30 00:21:06;;;;;;;65.65;19.13;;;;;;;-5.04;62.05;95697.56;5064272;28;20107;-72
2023/01/30 00:23:32;;;;;;;89.22;20.10;;;;;;;-4.60;60.90;95707.41;5067188;28;20275;-70
2023/01/30 00:25:58;;;;;;;72.30;20.48;;;;;;;-5.28;63.29;95729.03;5065796;28;20159;-71
2023/01/30 00:28:23;;;;;;;34.47;15.85;;;;;;;-5.73;65.18;95740.72;5066234;28;20358;-71
2023/01/30 00:30:49;;;;;;;104.90;19.27;;;;;;;-5.67;65.08;95718.81;5064281;28;20113;-70
2023/01/30 00:33:15;;;;;;;101.57;14.95;;;;;;;-5.57;65.48;95710.56;5068691;28;20112;-70
2023/01/30 00:35:44;;;;;;;96.88;17.98;;;;;;;-5.27;64.15;95697.81;5070639;28;20507;-69
2023/01/30 00:38:10;;;;;;;82.80;13.98;;;;;;;-5.54;65.62;95698.28;5068424;28;20107;-69
2023/01/30 00:40:35;;;;;;;96.75;16.50;;;;;;;-5.59;65.85;95702.88;5073294;28;20460;-72
2023/01/30 00:48:28;;;;;;;418.38;23.17;;;;;;;-5.96;67.51;95676.97;5050733;28;20158;-72
2023/01/30 00:50:54;;;;;;;270.90;19.02;;;;;;;-6.32;68.54;95675.22;5067652;28;20495;-69
2023/01/30 00:53:19;;;;;;;300.00;20.08;;;;;;;-6.27;69.29;95678.41;5068061;28;20153;-71
2023/01/30 00:55:44;;;;;;;452.88;24.27;;;;;;;-6.25;69.83;95686.97;5069063;28;20116;-71
2023/01/30 00:58:11;;;;;;;110.22;13.32;;;;;;;-5.70;67.90;95685.25;5062963;28;20073;-69
2023/01/30 01:00:36;;;;;;;499.63;24.23;;;;;;;-5.94;67.73;95690.72;5065630;28;20103;-72
2023/01/30 01:03:01;;;;;;;147.88;15.55;;;;;;;-5.92;68.22;95688.00;5064894;28;20131;-70
2023/01/30 01:05:27;;;;;;;553.17;25.92;;;;;;;-6.45;69.71;95678.38;5063263;28;20076;-70
2023/01/30 01:07:52;;;;;;;516.25;23.58;;;;;;;-6.14;69.55;95682.13;5068604;28;20108;-71
2023/01/30 01:10:18;;;;;;;111.72;13.43;;;;;;;-5.73;67.95;95657.69;5069747;28;20496;-70
2023/01/30 01:12:44;;;;;;;606.67;26.42;;;;;;;-6.25;68.78;95677.44;5069346;28;20154;-70
2023/01/30 01:15:12;;;;;;;251.13;18.17;;;;;;;-6.13;68.83;95672.56;5066859;28;20071;-70
2023/01/30 01:17:38;;;;;;;681.45;29.95;;;;;;;-6.34;69.42;95661.47;5070829;28;20581;-63
2023/01/30 01:20:04;;;;;;;221.45;18.23;;;;;;;-6.18;70.19;95640.84;5064252;28;20618;-69
2023/01/30 01:22:29;;;;;;;446.15;23.10;;;;;;;-5.97;69.35;95634.63;5065863;28;20156;-69
2023/01/30 01:24:58;;;;;;;397.83;24.05;;;;;;;-5.46;66.67;95623.47;5065261;28;20096;-71
2023/01/30 01:27:23;;;;;;;563.55;27.33;;;;;;;-5.81;66.53;95630.44;5065837;28;20238;-70
2023/01/30 01:29:48;;;;;;;100.60;12.32;;;;;;;-5.10;65.74;95619.06;5065934;28;20121;-70
2023/01/30 01:32:14;;;;;;;223.00;16.90;;;;;;;-5.77;67.92;95629.38;5067745;28;20101;-71
2023/01/30 01:34:39;;;;;;;126.07;15.55;;;;;;;-4.91;65.95;95612.06;5067077;28;20119;-72
2023/01/30 01:37:05;;;;;;;89.57;15.60;;;;;;;-4.44;63.82;95606.03;5072459;28;20095;-70
2023/01/30 01:42:14;;;;;;;255.65;20.40;;;;;;;-5.16;64.01;95593.44;5064156;28;20453;-72
2023/01/30 01:45:01;;;;;;;129.32;15.60;;;;;;;-4.83;64.00;95596.88;5070033;28;20382;-71
2023/01/30 01:47:27;;;;;;;95.40;12.95;;;;;;;-5.51;67.35;95606.47;5065570;28;20135;-68
2023/01/30 01:49:52;;;;;;;318.95;20.27;;;;;;;-5.80;68.40;95601.84;5066567;28;20475;-69
2023/01/30 01:52:18;;;;;;;172.35;16.40;;;;;;;-5.27;66.38;95601.75;5068640;28;20112;-69
2023/01/30 01:54:55;;;;;;;77.10;15.25;;;;;;;-4.63;64.55;95603.59;5067513;28;20068;-72
2023/01/30 01:57:27;;;;;;;206.82;17.45;;;;;;;-5.40;67.44;95611.13;5068568;28;20229;-72
2023/01/30 01:59:59;;;;;;;406.55;27.13;;;;;;;-5.99;67.53;95597.56;5065758;28;20103;-72
2023/01/30 02:02:25;;;;;;;147.50;16.80;;;;;;;-5.23;65.54;95603.28;5068877;28;20083;-70
2023/01/30 02:05:01;;;;;;;151.57;17.40;;;;;;;-5.27;66.03;95598.34;5069485;28;20113;-72
2023/01/30 02:07:30;;;;;;;213.15;19.73;;;;;;;-5.64;67.80;95603.66;5067531;28;20096;-72
2023/01/30 02:09:55;;;;;;;176.33;20.07;;;;;;;-5.47;66.75;95595.03;5066646;28;20107;-72
2023/01/30 02:12:20;;;;;;;100.22;16.75;;;;;;;-5.69;68.53;95590.94;5057491;28;20116;-70
2023/01/30 02:14:46;;;;;;;85.97;15.55;;;;;;;-5.34;67.08;95583.09;5069043;28;20414;-71
2023/01/30 02:17:11;;;;;;;68.47;12.55;;;;;;;-5.79;68.71;95600.06;5059712;28;20116;-71
2023/01/30 02:20:03;;;;;;;137.55;17.30;;;;;;;-5.51;68.04;95593.47;5070391;28;20817;-68
2023/01/30 02:22:35;;;;;;;82.30;15.55;;;;;;;-5.77;68.85;95593.88;5065115;28;20084;-70
2023/01/30 02:25:14;;;;;;;70.15;15.13;;;;;;;-6.13;70.45;95595.66;5066685;28;20112;-71
2023/01/30 02:28:17;;;;;;;98.55;14.68;;;;;;;-5.73;69.11;95586.81;5064827;28;20159;-71
2023/01/30 02:30:45;;;;;;;100.15;17.83;;;;;;;-6.24;70.79;95595.34;5065514;28;20075;-71
2023/01/30 02:33:21;;;;;;;132.00;18.33;;;;;;;-6.51;72.73;95599.19;5069224;28;20207;-71
2023/01/30 02:35:55;;;;;;;276.02;20.67;;;;;;;-6.18;71.10;95578.66;5070616;28;20599;-71
2023/01/30 02:38:45;;;;;;;168.75;16.70;;;;;;;-6.34;71.54;95597.53;5071364;28;20096;-69
2023/01/30 02:41:32;;;;;;;374.00;25.42;;;;;;;-6.07;70.19;95591.06;5070062;28;20149;-72
2023/01/30 02:44:13;;;;;;;125.35;15.20;;;;;;;-6.05;72.16;95568.53;5068920;28;20312;-69
2023/01/30 02:47:24;;;;;;;175.98;17.83;;;;;;;-5.79;70.70;95571.53;5073915;28;20151;-69
2023/01/30 02:49:57;;;;;;;72.25;15.70;;;;;;;-5.92;72.18;95556.59;5010844;28;20118;-69
2023/01/30 02:52:22;;;;;;;164.10;17.02;;;;;;;-5.91;72.49;95566.06;4981940;28;20129;-69
2023/01/30 02:54:48;;;;;;;326.90;24.40;;;;;;;-6.77;75.03;95558.94;5030961;28;20721;-70
2023/01/30 02:57:21;;;;;;;41.38;11.98;;;;;;;-5.15;71.51;95543.19;5069985;28;20099;-73
2023/01/30 02:59:48;;;;;;;293.92;22.77;;;;;;;-5.86;72.08;95542.50;5067976;28;20130;-69
2023/01/30 03:02:50;;;;;;;52.42;13.07;;;;;;;-5.18;72.49;95547.69;5071131;28;20548;-69
2023/01/30 03:05:37;;;;;;;21.95;10.90;;;;;;;-5.62;74.32;95530.03;5067757;28;20098;-71
2023/01/30 03:08:15;;;;;;;154.27;17.58;;;;;;;-5.55;75.95;95532.28;5066576;28;20120;-71
2023/01/30 03:11:00;;;;;;;110.60;13.63;;;;;;;-6.01;77.82;95533.75;5073611;28;20079;-70
2023/01/30 03:13:52;;;;;;;19.50;9.73;;;;;;;-5.54;76.47;95521.00;5071630;28;20600;-70
2023/01/30 03:16:19;;;;;;;16.92;9.60;;;;;;;-5.66;74.92;95528.50;5067376;28;20819;-72
2023/01/30 03:18:44;;;;;;;72.97;12.85;;;;;;;-5.92;77.04;95525.50;5071608;28;20557;-72
2023/01/30 03:21:10;;;;;;;36.75;10.80;;;;;;;-5.82;77.20;95523.25;5053559;28;20113;-69
2023/01/30 03:23:35;;;;;;;36.03;11.93;;;;;;;-6.02;77.73;95517.34;5069534;28;20109;-68
2023/01/30 03:26:03;;;;;;;167.27;15.25;;;;;;;-5.92;78.29;95520.31;5069368;28;20075;-68
2023/01/30 03:28:28;;;;;;;134.30;14.43;;;;;;;-6.58;80.83;95509.72;5069609;28;20480;-72
2023/01/30 03:30:53;;;;;;;58.90;11.18;;;;;;;-5.80;78.77;95505.03;5064367;28;20068;-72
2023/01/30 03:33:19;;;;;;;32.60;12.00;;;;;;;-5.91;77.88;95521.97;5070345;28;20107;-68
2023/01/30 03:35:44;;;;;;;54.38;12.75;;;;;;;-5.87;78.60;95520.91;5066820;28;20114;-72
2023/01/30 03:38:10;;;;;;;90.47;12.43;;;;;;;-5.72;79.17;95510.66;5069397;28;20194;-68
2023/01/30 03:40:35;;;;;;;33.20;10.32;;;;;;;-5.89;78.26;95514.97;5062290;28;20103;-71
2023/01/30 03:43:00;;;;;;;100.13;13.43;;;;;;;-6.25;80.13;95516.72;5069100;28;20115;-69
2023/01/30 03:45:28;;;;;;;65.15;11.27;;;;;;;-5.64;80.50;95525.84;5068733;28;20328;-69
2023/01/30 03:47:54;;;;;;;73.22;10.40;;;;;;;-5.54;78.78;95501.06;5071775;28;20122;-71
2023/01/30 03:50:19;;;;;;;114.85;13.32;;;;;;;-5.84;80.48;95494.00;5072945;28;20073;-72
2023/01/30 03:52:45;;;;;;;187.18;17.48;;;;;;;-5.92;79.37;95489.19;5069855;28;20116;-70
2023/01/30 03:55:10;;;;;;;41.38;7.82;;;;;;;-5.46;78.81;95482.53;5066842;28;20627;-71
2023/01/30 03:57:35;;;;;;;185.50;15.02;;;;;;;-5.28;77.50;95500.59;5070369;28;20102;-68
2023/01/30 04:00:03;;;;;;;154.00;13.50;;;;;;;-5.47;76.09;95484.25;5073758;28;20097;-70
2023/01/30 04:02:28;;;;;;;169.45;13.90;;;;;;;-5.56;77.81;95479.56;5072688;28;20417;-69
2023/01/30 04:04:53;;;;;;;387.17;18.13;;;;;;;-5.83;77.92;95467.13;5073224;28;20114;-72
2023/01/30 04:07:19;;;;;;;287.05;15.82;;;;;;;-5.01;76.06;95498.28;5068497;28;20107;-70
2023/01/30 04:09:44;;;;;;;188.90;14.35;;;;;;;-5.24;76.39;95466.63;5071326;28;20095;-72
2023/01/30 04:12:10;;;;;;;172.85;12.63;;;;;;;-4.75;75.68;95467.44;5067544;28;20107;-68
2023/01/30 04:14:35;;;;;;;255.80;15.70;;;;;;;-5.25;76.20;95464.09;5070625;28;20073;-71
2023/01/30 04:17:00;;;;;;;659.88;27.77;;;;;;;-5.55;76.29;95447.50;5071184;28;20548;-72
2023/01/30 04:19:26;;;;;;;116.95;9.70;;;;;;;-4.48;73.37;95455.56;5068691;28;20104;-70
2023/01/30 04:21:51;;;;;;;414.70;17.73;;;;;;;-4.76;74.78;95449.34;5069077;28;20324;-72
2023/01/30 04:24:16;;;;;;;278.77;14.73;;;;;;;-4.74;74.63;95447.47;5067967;28;20114;-68
2023/01/30 04:26:42;;;;;;;648.75;28.10;;;;;;;-4.34;70.68;95458.19;5077445;28;20444;-70
2023/01/30 04:29:07;;;;;;;428.70;20.33;;;;;;;-5.28;73.77;95443.50;5066551;28;20106;-72
2023/01/30 04:31:33;;;;;;;520.95;20.77;;;;;;;-4.31;71.80;95429.41;5071149;28;20107;-71
2023/01/30 04:33:58;;;;;;;347.55;15.90;;;;;;;-4.70;71.97;95438.56;5065687;28;20349;-71
2023/01/30 04:36:24;;;;;;;178.27;12.82;;;;;;;-4.28;71.33;95423.16;5068051;28;20113;-68
2023/01/30 04:38:49;;;;;;;93.68;9.02;;;;;;;-4.45;70.82;95421.59;5067359;28;20091;-70
2023/01/30 04:41:15;;;;;;;238.40;12.73;;;;;;;-4.46;71.37;95419.91;5066052;28;20104;-69
2023/01/30 04:43:40;;;;;;;98.30;9.63;;;;;;;-4.57;71.80;95423.13;5067746;28;20136;-71
2023/01/30 04:46:05;;;;;;;178.10;10.93;;;;;;;-4.56;72.47;95415.25;5067428;28;20132;-70
2023/01/30 04:48:31;;;;;;;413.83;19.00;;;;;;;-4.64;72.18;95433.03;5068944;28;20107;-70
2023/01/30 04:50:56;;;;;;;468.38;19.58;;;;;;;-4.86;73.10;95418.66;5070050;28;20071;-69
2023/01/30 04:53:22;;;;;;;325.50;15.32;;;;;;;-4.16;72.08;95408.63;5071925;28;20483;-70
2023/01/30 04:55:47;;;;;;;391.55;17.45;;;;;;;-4.63;74.27;95403.53;5071335;28;20607;-70
2023/01/30 04:58:13;;;;;;;593.90;23.08;;;;;;;-4.07;69.84;95410.66;5073862;28;20486;-70
2023/01/30 05:00:39;;;;;;;62.15;9.13;;;;;;;-3.96;70.79;95399.63;5065523;28;20687;-71
2023/01/30 05:03:05;;;;;;;295.63;13.60;;;;;;;-3.44;67.33;95396.50;5062692;28;20080;-72
2023/01/30 05:05:30;;;;;;;504.33;22.88;;;;;;;-3.32;66.67;95398.34;5069219;28;20104;-68
2023/01/30 05:07:56;;;;;;;407.35;19.98;;;;;;;-3.18;66.71;95394.03;5066308;28;20106;-71
2023/01/30 05:10:21;;;;;;;732.75;26.23;;;;;;;-4.46;69.23;95399.09;5063223;28;20092;-71
2023/01/30 05:12:47;;;;;;;811.40;27.73;;;;;;;-4.93;77.88;95387.94;5066739;28;20714;-70
2023/01/30 05:15:12;;;;;;;437.65;19.08;;;;;;;-4.91;78.19;95389.53;5070393;28;20136;-71
2023/01/30 05:17:38;;;;;;;65.70;8.68;;;;;;;-4.77;77.51;95387.88;5067957;28;20084;-69
2023/01/30 05:20:07;;;;;;;211.85;15.82;;;;;;;-5.23;75.93;95385.22;5067733;28;20681;-70
2023/01/30 05:22:32;;;;;;;202.85;12.30;;;;;;;-5.18;75.24;95374.59;5067895;28;20077;-71
2023/01/30 05:24:57;;;;;;;114.22;9.18;;;;;;;-4.94;74.44;95361.13;5070412;28;20446;-70
2023/01/30 05:27:23;;;;;;;258.02;13.43;;;;;;;-4.69;73.81;95367.50;5064938;28;20195;-72
2023/01/30 05:29:48;;;;;;;477.83;20.88;;;;;;;-4.85;76.79;95370.16;5069554;28;20134;-72
2023/01/30 05:32:14;;;;;;;317.58;16.05;;;;;;;-5.41;78.08;95373.28;5067878;28;20613;-68
2023/01/30 05:34:39;;;;;;;146.20;11.55;;;;;;;-5.59;82.62;95368.16;5067700;28;20086;-71
2023/01/30 05:37:05;;;;;;;103.15;10.27;;;;;;;-4.90;76.38;95372.19;5064011;28;20154;-69
2023/01/30 05:39:30;;;;;;;18.63;7.45;;;;;;;-4.86;76.98;95361.53;5070526;28;20096;-70
2023/01/30 05:41:56;;;;;;;231.18;20.13;;;;;;;-4.74;76.55;95356.53;5068330;28;20088;-68
2023/01/30 05:44:21;;;;;;;234.45;30.55;;;;;;;-4.58;74.07;95377.28;5068699;28;20109;-70
2023/01/30 05:46:46;;;;;;;451.65;30.58;;;;;;;-4.71;73.39;95359.81;5076758;28;20079;-69
2023/01/30 05:49:12;;;;;;;588.35;24.15;;;;;;;-4.70;73.57;95360.63;5073652;28;20152;-71
2023/01/30 05:51:37;;;;;;;595.03;27.88;;;;;;;-5.29;77.50;95375.19;5072173;28;20718;-71
2023/01/30 05:54:03;;;;;;;147.80;10.18;;;;;;;-4.77;74.85;95361.91;5067976;28;20238;-69
2023/01/30 05:56:32;;;;;;;494.58;26.55;;;;;;;-4.72;74.75;95359.91;5065098;28;20522;-70
2023/01/30 05:58:57;;;;;;;469.33;22.63;;;;;;;-4.58;74.07;95357.31;5066658;28;20123;-68
2023/01/30 06:01:23;;;;;;;616.80;33.35;;;;;;;-5.53;75.43;95370.44;5067022;28;20084;-68
2023/01/30 06:03:48;;;;;;;221.30;13.52;;;;;;;-5.25;76.49;95340.34;5070324;28;20104;-70
2023/01/30 06:06:14;;;;;;;173.57;16.30;;;;;;;-4.90;75.41;95357.44;5067594;28;20087;-68
2023/01/30 06:08:39;;;;;;;246.63;14.60;;;;;;;-5.02;77.15;95345.16;5073387;28;20097;-70
2023/01/30 06:11:12;;;;;;;226.80;16.08;;;;;;;-5.72;79.80;95355.03;5068204;28;20518;-69
2023/01/30 06:13:38;;;;;;;52.78;10.07;;;;;;;-5.20;78.67;95343.50;5070449;28;20079;-62
2023/01/30 06:16:05;;;;;;;55.00;10.32;;;;;;;-5.50;81.23;95365.06;5068592;28;20112;-69
2023/01/30 06:18:30;;;;;;;31.33;8.32;;;;;;;-4.99;78.50;95360.56;5074512;28;20597;-68
2023/01/30 06:20:56;;;;;;;74.45;8.32;;;;;;;-4.51;76.01;95357.81;5069815;28;20174;-70
2023/01/30 06:23:24;;;;;;;177.25;12.18;;;;;;;-4.83;74.47;95366.53;5074120;28;20100;-70
2023/01/30 06:25:49;;;;;;;134.98;9.63;;;;;;;-5.08;77.40;95351.53;5066954;28;20166;-71
2023/01/30 06:28:15;;;;;;;36.38;6.88;;;;;;;-5.04;79.23;95353.03;5075171;28;20196;-71
2023/01/30 06:30:41;;;;;;;118.85;12.32;;;;;;;-4.93;79.68;95354.19;5070577;28;20081;-68
2023/01/30 06:33:06;;;;;;;24.95;7.43;;;;;;;-4.69;78.96;95355.34;5070961;28;20588;-71
2023/01/30 06:35:31;;;;;;;8.07;4.95;;;;;;;-4.85;77.02;95358.00;5069333;28;20100;-67
2023/01/30 06:37:57;;;;;;;55.17;8.63;;;;;;;-5.37;79.48;95352.25;5077279;28;20103;-69
2023/01/30 06:40:22;;;;;;;10.45;6.43;;;;;;;-4.45;76.16;95359.22;5071604;28;20100;-71
2023/01/30 06:42:48;;;;;;;16.15;7.38;;;;;;;-3.98;74.71;95362.47;5071641;28;20123;-69
2023/01/30 06:45:14;;;;;;;15.82;7.25;;;;;;;-4.88;75.27;95372.94;5072169;28;20141;-70
2023/01/30 06:47:53;;;;;;;15.63;8.50;;;;;;;-4.58;73.73;95372.09;5071596;28;20130;-68
2023/01/30 06:50:19;;;;;;;6.72;4.35;;;;;;;-4.15;72.38;95392.09;5067622;28;20491;-70
2023/01/30 06:52:46;;;;;;;9.60;6.28;;;;;;;-4.38;72.14;95388.28;5067016;28;20140;-69
2023/01/30 06:55:12;;;;;;;8.90;5.82;;;;;;;-4.53;73.83;95385.63;5054401;28;20089;-70
2023/01/30 06:57:38;;;;;;;5.75;4.13;;;;;;;-3.78;71.70;95376.84;5068692;28;20104;-68
2023/01/30 07:00:04;;;;;;;21.73;5.80;;;;;;;-4.05;72.01;95364.59;5071986;28;20111;-69
2023/01/30 07:02:33;;;;;;;7.63;4.45;;;;;;;-3.29;70.87;95374.69;5069547;28;20552;-70
2023/01/30 07:04:58;;;;;;;8.93;5.67;;;;;;;-3.68;69.23;95384.94;5066330;28;20123;-71
2023/01/30 07:07:24;;;;;;;6.43;3.95;;;;;;;-4.04;73.30;95384.47;5072395;28;20191;-68
2023/01/30 07:09:49;;;;;;;5.25;3.70;;;;;;;-4.27;74.81;95382.44;5067003;28;20095;-71
2023/01/30 07:12:14;;;;;;;10.70;5.00;;;;;;;-3.91;70.94;95371.56;5071050;28;20323;-68
2023/01/30 07:14:40;;;;;;;5.10;2.90;;;;;;;-3.67;71.01;95368.38;5066930;28;20484;-71
2023/01/30 07:17:05;;;;;;;4.75;3.33;;;;;;;-3.43;70.50;95377.34;5070763;28;20116;-71
2023/01/30 07:19:31;;;;;;;7.45;3.20;;;;;;;-3.84;71.45;95386.81;5068356;28;20100;-67
2023/01/30 07:21:56;;;;;;;36.05;4.75;;;;;;;-3.45;70.74;95392.22;5071739;28;20081;-71
2023/01/30 07:24:21;;;;;;;39.92;4.68;;;;;;;-3.84;72.69;95400.63;5068922;28;20105;-70
2023/01/30 07:26:47;;;;;;;63.20;5.25;;;;;;;-2.94;70.04;95388.16;5070003;28;20081;-70
2023/01/30 07:29:13;;;;;;;7.47;2.80;;;;;;;-3.13;69.78;95404.97;5072048;28;20112;-67
2023/01/30 07:31:38;;;;;;;16.48;3.33;;;;;;;-2.83;68.93;95398.72;5066361;28;20477;-71
2023/01/30 07:34:03;;;;;;;254.52;13.93;;;;;;;-3.29;69.83;95390.31;5072175;28;20104;-68
2023/01/30 07:36:32;;;;;;;61.53;4.80;;;;;;;-2.80;69.95;95379.44;5066475;28;20105;-69
2023/01/30 07:38:58;;;;;;;32.73;3.40;;;;;;;-2.68;68.11;95390.84;5067479;28;20085;-71
2023/01/30 07:41:23;;;;;;;61.10;4.43;;;;;;;-2.66;67.65;95394.16;5069778;28;20432;-69
2023/01/30 07:43:49;;;;;;;259.75;12.68;;;;;;;-2.65;66.52;95381.03;5068257;28;20430;-67
2023/01/30 07:46:14;;;;;;;574.30;18.73;;;;;;;-3.00;68.02;95371.16;5063491;28;20060;-70
2023/01/30 07:48:39;;;;;;;43.08;4.25;;;;;;;-2.29;67.06;95368.25;5067143;28;20474;-67
2023/01/30 07:51:05;;;;;;;112.03;5.05;;;;;;;-2.37;67.09;95360.94;5063488;28;20146;-69
2023/01/30 07:53:30;;;;;;;422.73;13.18;;;;;;;-2.50;67.30;95378.38;5068805;28;20119;-71
2023/01/30 07:55:56;;;;;;;707.90;18.40;;;;;;;-2.57;66.16;95390.13;5065013;28;20106;-68
2023/01/30 07:58:21;;;;;;;571.67;14.50;;;;;;;-2.81;66.46;95377.78;5055458;28;20096;-72
2023/01/30 08:00:47;;;;;;;330.20;9.38;;;;;;;-2.59;69.26;95369.38;5064369;28;20114;-68
2023/01/30 08:03:13;;;;;;;433.63;11.23;;;;;;;-2.57;69.46;95364.91;5063898;28;20081;-67
2023/01/30 08:05:38;;;;;;;285.55;8.30;;;;;;;-2.50;68.25;95365.31;5081933;28;20082;-71
2023/01/30 08:08:03;;;;;;;28.05;2.97;;;;;;;-2.76;68.99;95366.13;5064981;28;20103;-68
2023/01/30 08:10:29;;;;;;;120.82;4.20;;;;;;;-2.39;67.60;95377.63;5060648;28;20438;-72
2023/01/30 08:12:54;;;;;;;27.88;2.92;;;;;;;-3.10;69.93;95375.28;5065573;28;20173;-72
2023/01/30 08:15:20;;;;;;;50.40;3.85;;;;;;;-3.20;70.95;95388.91;5070585;28;20265;-69
2023/01/30 08:17:52;;;;;;;108.43;5.53;;;;;;;-3.22;70.89;95362.13;5069260;28;20599;-73
2023/01/30 08:20:18;;;;;;;11.60;2.97;;;;;;;-3.87;73.92;95377.41;5064921;28;20110;-69
2023/01/30 08:22:43;;;;;;;22.67;3.45;;;;;;;-4.00;74.96;95373.88;5063296;28;20081;-73
2023/01/30 08:25:09;;;;;;;4.03;2.53;;;;;;;-4.88;79.14;95399.75;5063424;28;20109;-69
2023/01/30 08:27:34;;;;;;;3.05;2.22;;;;;;;-4.58;79.30;95378.09;5066259;28;20170;-71
2023/01/30 08:29:59;;;;;;;3.10;2.28;;;;;;;-4.45;78.61;95400.78;5060237;28;20532;-68
2023/01/30 08:32:25;;;;;;;3.80;2.60;;;;;;;-4.71;80.01;95379.75;5066254;28;20343;-71
2023/01/30 08:34:50;;;;;;;2.33;1.95;;;;;;;-4.52;79.51;95384.69;5072158;28;20088;-73
2023/01/30 08:37:15;;;;;;;3.42;1.80;;;;;;;-4.51;79.24;95390.75;5064007;28;20103;-71
2023/01/30 08:39:41;;;;;;;2.80;1.85;;;;;;;-4.56;79.85;95404.84;5072015;28;20248;-73
2023/01/30 08:42:06;;;;;;;3.22;1.75;;;;;;;-4.46;79.75;95389.56;5066823;28;20087;-71
2023/01/30 08:44:32;;;;;;;2.97;1.55;;;;;;;-4.73;81.73;95382.44;5061846;28;20108;-73
2023/01/30 08:46:57;;;;;;;1.77;1.65;;;;;;;-4.28;79.81;95391.97;5064930;28;20106;-73
2023/01/30 08:49:23;;;;;;;1.80;1.70;;;;;;;-4.27;78.16;95390.22;5073157;28;20156;-70
2023/01/30 08:51:48;;;;;;;4.53;3.28;;;;;;;-4.39;79.50;95390.03;5069828;28;20097;-72
2023/01/30 08:54:13;;;;;;;10.35;2.60;;;;;;;-4.23;79.65;95386.50;5067490;28;20089;-72
2023/01/30 08:56:39;;;;;;;213.13;7.97;;;;;;;-4.27;80.10;95388.47;5065474;28;20113;-71
2023/01/30 08:59:05;;;;;;;358.73;11.73;;;;;;;-3.87;79.19;95374.81;5065086;28;20088;-70
2023/01/30 09:01:30;;;;;;;444.98;17.08;;;;;;;-4.01;79.37;95364.44;5065090;28;20432;-73
2023/01/30 09:03:56;;;;;;;379.90;12.32;;;;;;;-3.89;79.87;95363.66;5066867;28;20141;-72
2023/01/30 09:06:21;;;;;;;109.38;6.32;;;;;;;-4.96;83.22;95376.78;5068510;28;20071;-71
2023/01/30 09:08:47;;;;;;;25.83;2.40;;;;;;;-4.67;83.00;95386.44;5066253;28;20103;-70
2023/01/30 09:11:12;;;;;;;1.95;1.50;;;;;;;-4.82;81.78;95368.22;5070110;28;20113;-71
2023/01/30 09:13:42;;;;;;;2.13;1.60;;;;;;;-5.09;83.04;95397.41;5067062;28;20070;-70
2023/01/30 09:16:09;;;;;;;2.10;1.45;;;;;;;-4.77;82.81;95400.88;5066031;28;20613;-71
2023/01/30 09:18:37;;;;;;;1.80;1.70;;;;;;;-4.89;82.79;95408.44;5065253;28;20505;-72
2023/01/30 09:21:03;;;;;;;1.05;1.05;;;;;;;-4.76;83.33;95382.59;5067331;28;20110;-69
2023/01/30 09:23:29;;;;;;;1.73;1.60;;;;;;;-4.56;83.61;95404.84;5049811;28;20566;-69
2023/01/30 09:25:54;;;;;;;3.45;1.30;;;;;;;-4.46;83.78;95384.34;5067569;28;20156;-72
2023/01/30 09:28:19;;;;;;;149.15;6.97;;;;;;;-4.48;83.88;95390.56;5064667;28;20094;-71
2023/01/30 09:30:45;;;;;;;250.02;12.23;;;;;;;-4.48;84.52;95375.78;5063820;28;20523;-69
2023/01/30 09:33:10;;;;;;;53.38;4.30;;;;;;;-4.49;85.38;95386.31;5067453;28;20107;-70
2023/01/30 09:35:35;;;;;;;7.35;3.72;;;;;;;-4.71;87.46;95359.81;5063130;28;20476;-68
2023/01/30 09:38:03;;;;;;;137.57;8.23;;;;;;;-4.51;87.05;95360.41;5067700;28;20545;-69
2023/01/30 09:40:30;;;;;;;14.85;4.93;;;;;;;-4.43;86.30;95347.78;5064279;28;20103;-70
2023/01/30 09:43:19;;;;;;;6.85;4.47;;;;;;;-4.20;85.56;95349.94;5046335;28;20144;-71
2023/01/30 09:46:23;;;;;;;6.05;4.60;;;;;;;-4.36;86.67;95374.25;5059110;28;20479;-68
2023/01/30 09:48:56;;;;;;;8.32;4.95;;;;;;;-4.58;87.50;95369.50;5025512;28;20110;-68
2023/01/30 09:51:49;;;;;;;10.70;5.32;;;;;;;-4.43;87.69;95375.53;5065150;28;20187;-70
2023/01/30 09:54:37;;;;;;;7.53;4.88;;;;;;;-4.37;87.13;95387.34;5062661;28;20077;-68
2023/01/30 09:57:10;;;;;;;7.75;4.93;;;;;;;-4.23;86.83;95392.56;5063495;28;20604;-69
2023/01/30 09:59:45;;;;;;;9.88;4.90;;;;;;;-4.02;85.62;95381.78;5063471;28;20124;-68
2023/01/30 10:02:50;;;;;;;15.38;6.15;;;;;;;-4.11;86.09;95403.16;5065236;28;20087;-68
2023/01/30 10:05:16;;;;;;;12.80;6.65;;;;;;;-4.27;85.25;95424.88;5026901;28;20291;-70
2023/01/30 10:08:04;;;;;;;13.00;5.35;;;;;;;-4.32;86.02;95416.47;5064240;28;20103;-70
2023/01/30 10:10:36;;;;;;;13.57;6.80;;;;;;;-4.25;85.84;95424.78;5071656;28;20424;-69
2023/01/30 10:13:19;;;;;;;13.82;6.47;;;;;;;-4.05;85.86;95392.38;5066648;28;20132;-70
2023/01/30 10:15:50;;;;;;;18.95;7.50;;;;;;;-4.26;85.54;95417.88;5064452;28;20107;-71
2023/01/30 10:18:28;;;;;;;14.48;6.40;;;;;;;-4.41;85.88;95404.88;5068571;28;20467;-70
2023/01/30 10:21:07;;;;;;;12.80;6.82;;;;;;;-4.33;86.68;95410.47;5070224;28;20127;-69
2023/01/30 10:23:50;;;;;;;11.80;6.47;;;;;;;-4.37;85.25;95408.13;5064823;28;20612;-70
2023/01/30 10:26:18;;;;;;;11.90;5.45;;;;;;;-3.84;83.82;95405.84;5065069;28;20083;-70
2023/01/30 10:29:13;;;;;;;14.18;5.97;;;;;;;-3.62;82.37;95401.09;5063359;28;20094;-69
2023/01/30 10:32:13;;;;;;;13.77;5.75;;;;;;;-3.29;81.02;95424.16;5047272;28;20099;-69
2023/01/30 10:35:02;;;;;;;16.15;6.25;;;;;;;-3.46;80.70;95414.00;5043622;28;20093;-69
2023/01/30 10:37:49;;;;;;;10.23;4.43;;;;;;;-3.57;79.21;95423.28;5057670;28;20110;-68
2023/01/30 10:40:24;;;;;;;14.88;4.93;;;;;;;-3.74;80.14;95439.94;5063860;28;20348;-68
2023/01/30 10:43:03;;;;;;;15.55;4.65;;;;;;;-4.02;80.69;95404.34;5069849;28;20115;-70
2023/01/30 10:45:35;;;;;;;15.20;5.20;;;;;;;-4.08;81.32;95429.81;5065148;28;20543;-68
2023/01/30 10:48:32;;;;;;;11.73;4.28;;;;;;;-3.83;80.45;95420.53;5070466;28;20111;-69
2023/01/30 10:50:58;;;;;;;11.50;4.43;;;;;;;-3.48;78.41;95415.84;5064642;28;20329;-71
2023/01/30 10:53:46;;;;;;;15.00;4.35;;;;;;;-3.82;78.54;95429.16;5048908;28;20584;-70
2023/01/30 10:56:36;;;;;;;15.15;4.70;;;;;;;-3.59;78.96;95409.56;5065357;28;20113;-71
2023/01/30 10:59:13;;;;;;;14.50;4.15;;;;;;;-3.55;78.19;95452.69;5067586;28;20169;-71
2023/01/30 11:02:04;;;;;;;13.75;4.22;;;;;;;-3.72;77.08;95455.47;5065790;28;20428;-69
2023/01/30 11:04:35;;;;;;;12.07;3.55;;;;;;;-3.59;77.83;95456.41;5069953;28;20158;-70
2023/01/30 11:07:01;;;;;;;12.02;3.70;;;;;;;-3.34;75.72;95438.41;5053498;28;20077;-71
2023/01/30 11:09:40;;;;;;;17.23;3.47;;;;;;;-2.93;74.33;95436.72;5049939;28;20075;-69
2023/01/30 11:12:05;;;;;;;;;;;;;;;-3.09;73.72;95426.47;5066873;28;20122;-68
2023/01/30 11:14:55;;;;;;;12.75;3.63;;;;;;;-3.27;73.75;95431.88;5065582;28;20192;-71
2023/01/30 11:17:27;;;;;;;13.48;3.15;;;;;;;-3.52;74.37;95426.44;5071283;28;20175;-69
2023/01/30 11:19:54;;;;;;;13.32;3.17;;;;;;;-3.36;73.05;95429.88;5052984;28;20106;-71
2023/01/30 11:22:19;;;;;;;20.90;3.63;;;;;;;-3.46;74.63;95420.00;5066434;28;20238;-70
2023/01/30 11:24:45;;;;;;;15.27;3.67;;;;;;;-3.40;72.96;95419.66;5051527;28;20091;-70
2023/01/30 11:27:19;;;;;;;13.68;3.60;;;;;;;-3.69;75.21;95419.69;5067944;28;21314;-70
2023/01/30 11:29:46;;;;;;;14.88;3.53;;;;;;;-3.49;74.18;95440.22;5051621;28;20068;-70
2023/01/30 11:32:15;;;;;;;12.48;2.80;;;;;;;-3.41;74.09;95425.78;5064710;28;20158;-70
2023/01/30 11:34:43;;;;;;;15.30;3.78;;;;;;;-3.41;74.79;95410.16;5046156;28;20065;-70
2023/01/30 11:37:31;;;;;;;12.63;3.55;;;;;;;-3.12;73.82;95414.47;5062911;28;20097;-68